Time;durP1;ratioP1;P1;durP2;ratioP2;P2;SDS_P1;SDS_P2;PMS_P1;PMS_P2;Temp;Humidity;BMP_temperature;BMP_pressure;BME280_temperature;BME280_humidity;BME280_pressure;Samples;Min_cycle;Max_cycle;Signal;HPM_P1;HPM_P2
2021/08/23 01:06:48;;;;;;;;;;;19.10;99.90;;;;;;2620278;54;20040;-73
2021/08/23 01:09:16;;;;;;;;;;;18.90;99.90;;;;;;2621039;46;19943;-73
2021/08/23 01:11:46;;;;;;;;;;;19.00;99.90;;;;;;2621004;54;19939;-73
2021/08/23 01:14:11;;;;;;;;;;;19.00;99.90;;;;;;2620238;46;19938;-73
2021/08/23 01:16:37;;;;;;;;;;;19.00;99.90;;;;;;2620910;54;19973;-73
2021/08/23 01:19:03;;;;;;;;;;;19.00;99.90;;;;;;2621024;54;19938;-75
2021/08/23 01:21:31;;;;;;;;;;;19.10;99.90;;;;;;2622315;39;20307;-73
2021/08/23 01:24:01;;;;;;;;;;;19.10;99.90;;;;;;2620744;54;20051;-74
2021/08/23 01:26:29;;;;;;;;;;;19.10;99.90;;;;;;2620603;54;19946;-74
2021/08/23 01:28:59;;;;;;;;;;;19.10;99.90;;;;;;2620575;54;19987;-74
2021/08/23 01:31:29;;;;;;;;;;;19.00;99.90;;;;;;2620299;54;20030;-73
2021/08/23 01:33:58;;;;;;;;;;;19.00;99.90;;;;;;2620679;54;20057;-74
2021/08/23 01:36:24;;;;;;;;;;;19.00;99.90;;;;;;2620966;54;20403;-73
2021/08/23 01:38:50;;;;;;;;;;;18.90;99.90;;;;;;2620743;54;19962;-73
2021/08/23 01:41:15;;;;;;;;;;;19.00;99.90;;;;;;2620085;46;20487;-73
2021/08/23 01:43:41;;;;;;;;;;;18.90;99.90;;;;;;2620477;47;19938;-74
2021/08/23 01:46:07;;;;;;;;;;;18.90;99.90;;;;;;2621384;39;20315;-73
2021/08/23 01:48:33;;;;;;;;;;;18.80;99.90;;;;;;2621102;54;19939;-72
2021/08/23 01:51:01;;;;;;;;;;;18.60;99.90;;;;;;2620682;46;20457;-74
2021/08/23 01:53:27;;;;;;;;;;;18.60;99.90;;;;;;2620987;39;20343;-76
2021/08/23 01:55:53;;;;;;;;;;;18.60;99.90;;;;;;2621384;54;19942;-74
2021/08/23 01:58:19;;;;;;;;;;;18.50;99.90;;;;;;2621346;54;19938;-73
2021/08/23 02:00:44;;;;;;;;;;;18.30;99.90;;;;;;2620998;54;19950;-75
2021/08/23 02:03:10;;;;;;;;;;;18.30;99.90;;;;;;2620969;54;19960;-74
2021/08/23 02:05:36;;;;;;;;;;;18.20;99.90;;;;;;2620557;54;20415;-73
2021/08/23 02:08:05;;;;;;;;;;;18.30;99.90;;;;;;2620794;54;19942;-74
2021/08/23 02:10:31;;;;;;;;;;;18.30;99.90;;;;;;2620760;54;19938;-74
2021/08/23 02:12:57;;;;;;;;;;;18.40;99.90;;;;;;2620316;46;19973;-72
2021/08/23 02:15:23;;;;;;;;;;;18.40;99.90;;;;;;2620578;47;19939;-72
2021/08/23 02:17:48;;;;;;;;;;;18.50;99.90;;;;;;2620788;39;20306;-71
2021/08/23 02:20:14;;;;;;;;;;;18.50;99.90;;;;;;2621459;39;20356;-71
2021/08/23 02:22:43;;;;;;;;;;;18.50;99.90;;;;;;2621190;54;19950;-71
2021/08/23 02:25:11;;;;;;;;;;;18.60;99.90;;;;;;2619717;47;19949;-72
2021/08/23 02:27:37;;;;;;;;;;;18.60;99.90;;;;;;2619414;54;19943;-72
2021/08/23 02:30:03;;;;;;;;;;;18.50;99.90;;;;;;2618889;54;19965;-71
2021/08/23 02:32:29;;;;;;;;;;;18.50;99.90;;;;;;2618724;54;20469;-71
2021/08/23 02:34:55;;;;;;;;;;;18.40;99.90;;;;;;2619054;54;19945;-71
2021/08/23 02:37:20;;;;;;;;;;;18.30;99.90;;;;;;2619165;54;19939;-72
2021/08/23 02:39:49;;;;;;;;;;;17.90;99.90;;;;;;2619168;54;20438;-73
2021/08/23 02:42:17;;;;;;;;;;;17.90;99.90;;;;;;2618509;54;20474;-71
2021/08/23 02:44:43;;;;;;;;;;;18.00;99.90;;;;;;2618465;54;19975;-72
2021/08/23 02:47:16;;;;;;;;;;;18.00;99.90;;;;;;2618453;54;20026;-73
2021/08/23 02:49:42;;;;;;;;;;;17.80;99.90;;;;;;2617903;47;19946;-73
2021/08/23 02:52:09;;;;;;;;;;;17.50;99.90;;;;;;2617734;47;20477;-75
2021/08/23 02:54:34;;;;;;;;;;;17.50;99.90;;;;;;2618444;39;20338;-73
2021/08/23 02:57:00;;;;;;;;;;;17.40;99.90;;;;;;2619258;54;19969;-73
2021/08/23 02:59:28;;;;;;;;;;;17.40;99.90;;;;;;2619401;54;19963;-73
2021/08/23 03:01:54;;;;;;;;;;;17.50;99.90;;;;;;2619341;54;19939;-72
2021/08/23 03:04:20;;;;;;;;;;;17.40;99.90;;;;;;2619402;54;19963;-74
2021/08/23 03:06:46;;;;;;;;;;;17.40;99.90;;;;;;2618742;47;20439;-72
2021/08/23 03:09:11;;;;;;;;;;;17.40;99.90;;;;;;2619536;54;20426;-72
2021/08/23 03:11:37;;;;;;;;;;;17.50;99.90;;;;;;2618791;47;19939;-72
2021/08/23 03:14:03;;;;;;;;;;;17.30;99.90;;;;;;2619526;54;19964;-72
2021/08/23 03:16:31;;;;;;;;;;;17.10;99.90;;;;;;2619099;54;19962;-72
2021/08/23 03:18:57;;;;;;;;;;;17.30;99.90;;;;;;2619114;54;19939;-73
2021/08/23 03:21:23;;;;;;;;;;;17.40;99.90;;;;;;2619432;54;19975;-73
2021/08/23 03:23:49;;;;;;;;;;;17.40;99.90;;;;;;2620052;54;19966;-74
2021/08/23 03:26:14;;;;;;;;;;;17.40;99.90;;;;;;2619659;47;19963;-74
2021/08/23 03:28:40;;;;;;;;;;;17.30;99.90;;;;;;2619934;54;19946;-74
2021/08/23 03:31:06;;;;;;;;;;;17.40;99.90;;;;;;2619300;54;19938;-74
2021/08/23 03:33:35;;;;;;;;;;;17.40;99.90;;;;;;2619135;54;19939;-70
2021/08/23 03:36:00;;;;;;;;;;;17.40;99.90;;;;;;2618973;54;20395;-71
2021/08/23 03:38:26;;;;;;;;;;;17.30;99.90;;;;;;2618545;47;19939;-71
2021/08/23 03:40:52;;;;;;;;;;;17.10;99.90;;;;;;2619855;54;19939;-72
2021/08/23 03:43:18;;;;;;;;;;;17.00;99.90;;;;;;2620395;54;20425;-72
2021/08/23 03:45:44;;;;;;;;;;;17.00;99.90;;;;;;2620674;54;20414;-72
2021/08/23 03:48:09;;;;;;;;;;;14.80;99.90;;;;;;2620436;54;19945;-71
2021/08/23 03:50:38;;;;;;;;;;;17.00;99.90;;;;;;2619932;46;20411;-71
2021/08/23 03:53:03;;;;;;;;;;;17.00;99.90;;;;;;2620745;54;19943;-72
2021/08/23 03:55:29;;;;;;;;;;;16.90;99.90;;;;;;2620576;54;19973;-72
2021/08/23 03:57:55;;;;;;;;;;;16.90;99.90;;;;;;2620508;46;19939;-72
2021/08/23 04:00:21;;;;;;;;;;;16.90;99.90;;;;;;2621215;54;19946;-72
2021/08/23 04:02:46;;;;;;;;;;;16.90;99.90;;;;;;2620657;54;19939;-74
2021/08/23 04:05:12;;;;;;;;;;;17.00;99.90;;;;;;2619856;46;19938;-74
2021/08/23 04:07:41;;;;;;;;;;;16.90;99.90;;;;;;2619772;31;20396;-74
2021/08/23 04:10:07;;;;;;;;;;;16.90;99.90;;;;;;2620179;54;19947;-77
2021/08/23 04:12:33;;;;;;;;;;;16.90;99.90;;;;;;2620223;54;19938;-72
2021/08/23 04:15:00;;;;;;;;;;;17.00;99.90;;;;;;2619699;54;19946;-73
2021/08/23 04:17:26;;;;;;;;;;;17.00;99.90;;;;;;2619982;39;20354;-74
2021/08/23 04:19:52;;;;;;;;;;;17.00;99.90;;;;;;2619982;54;20439;-74
2021/08/23 04:22:18;;;;;;;;;;;16.90;99.90;;;;;;2619158;46;20026;-71
2021/08/23 04:24:46;;;;;;;;;;;16.80;99.90;;;;;;2619903;54;19950;-71
2021/08/23 04:27:12;;;;;;;;;;;16.70;99.90;;;;;;2620430;54;19939;-71
2021/08/23 04:29:37;;;;;;;;;;;16.70;99.90;;;;;;2620258;39;20338;-72
2021/08/23 04:32:03;;;;;;;;;;;16.70;99.90;;;;;;2621060;39;20044;-71
2021/08/23 04:34:29;;;;;;;;;;;16.70;99.90;;;;;;2619921;46;20415;-73
2021/08/23 04:36:55;;;;;;;;;;;16.70;99.90;;;;;;2620502;54;19950;-72
2021/08/23 04:39:21;;;;;;;;;;;16.70;99.90;;;;;;2620596;54;20418;-73
2021/08/23 04:41:49;;;;;;;;;;;16.70;99.90;;;;;;2620774;54;19939;-71
2021/08/23 04:44:15;;;;;;;;;;;16.80;99.90;;;;;;2620803;54;19946;-72
2021/08/23 04:46:40;;;;;;;;;;;16.80;99.90;;;;;;2621077;54;19942;-72
2021/08/23 04:49:06;;;;;;;;;;;16.90;99.90;;;;;;2620920;54;20042;-71
2021/08/23 04:51:32;;;;;;;;;;;16.90;99.90;;;;;;2621025;54;19939;-74
2021/08/23 04:53:58;;;;;;;;;;;17.00;99.90;;;;;;2620569;46;19963;-73
2021/08/23 04:56:23;;;;;;;;;;;17.00;99.90;;;;;;2620697;46;19946;-72
2021/08/23 04:58:52;;;;;;;;;;;17.10;99.90;;;;;;2620499;54;19946;-70
2021/08/23 05:01:18;;;;;;;;;;;17.10;99.90;;;;;;2620104;47;19938;-71
2021/08/23 05:03:43;;;;;;;;;;;17.10;99.90;;;;;;2620066;54;19946;-72
2021/08/23 05:06:09;;;;;;;;;;;17.10;99.90;;;;;;2620098;54;19945;-72
2021/08/23 05:08:35;;;;;;;;;;;17.20;99.90;;;;;;2619499;54;19938;-71
2021/08/23 05:11:01;;;;;;;;;;;17.20;99.90;;;;;;2619849;47;19962;-71
2021/08/23 05:13:26;;;;;;;;;;;17.10;99.90;;;;;;2620676;54;19940;-72
2021/08/23 05:15:56;;;;;;;;;;;17.00;99.90;;;;;;2620299;54;19991;-71
2021/08/23 05:18:22;;;;;;;;;;;17.00;99.90;;;;;;2619675;47;19942;-72
2021/08/23 05:20:48;;;;;;;;;;;17.00;99.90;;;;;;2621200;39;20346;-71
2021/08/23 05:23:13;;;;;;;;;;;17.00;99.90;;;;;;2620111;54;20436;-70
2021/08/23 05:25:39;;;;;;;;;;;17.10;99.90;;;;;;2619080;47;19938;-71
2021/08/23 05:28:05;;;;;;;;;;;17.10;99.90;;;;;;2619416;54;19939;-71
2021/08/23 05:30:31;;;;;;;;;;;17.10;99.90;;;;;;2619439;54;19946;-71
2021/08/23 05:33:00;;;;;;;;;;;17.20;99.90;;;;;;2619362;54;19942;-71
2021/08/23 05:35:25;;;;;;;;;;;17.40;99.90;;;;;;2619369;54;19987;-70
2021/08/23 05:37:51;;;;;;;;;;;17.60;99.90;;;;;;2619000;47;20422;-70
2021/08/23 05:40:19;;;;;;;;;;;18.00;99.90;;;;;;2619516;39;20401;-71
2021/08/23 05:42:45;;;;;;;;;;;18.40;99.40;;;;;;2619157;54;19945;-70
2021/08/23 05:45:11;;;;;;;;;;;18.70;95.90;;;;;;2619119;54;19939;-70
2021/08/23 05:47:37;;;;;;;;;;;19.20;94.20;;;;;;2619466;54;19939;-71
2021/08/23 05:50:06;;;;;;;;;;;19.50;93.60;;;;;;2619273;54;19945;-72
2021/08/23 05:52:32;;;;;;;;;;;19.70;92.90;;;;;;2618117;54;19938;-71
2021/08/23 05:54:58;;;;;;;;;;;20.00;92.40;;;;;;2619316;54;19945;-71
2021/08/23 05:57:26;;;;;;;;;;;20.20;91.90;;;;;;2618690;46;20402;-70
2021/08/23 05:59:52;;;;;;;;;;;20.40;90.40;;;;;;2619158;54;21856;-71
2021/08/23 06:02:19;;;;;;;;;;;20.50;90.10;;;;;;2619172;54;19946;-71
2021/08/23 06:04:45;;;;;;;;;;;20.70;89.60;;;;;;2618961;39;20344;-71
2021/08/23 06:07:16;;;;;;;;;;;20.80;88.20;;;;;;2619353;54;19938;-71
2021/08/23 06:09:42;;;;;;;;;;;21.00;86.30;;;;;;2619085;54;20404;-71
2021/08/23 06:12:08;;;;;;;;;;;21.20;86.70;;;;;;2618671;47;19962;-71
2021/08/23 06:14:34;;;;;;;;;;;21.30;84.20;;;;;;2619270;54;20419;-72
